Time;durP1;ratioP1;P1;durP2;ratioP2;P2;SDS_P1;SDS_P2;PMS_P1;PMS_P2;Temp;Humidity;BMP_temperature;BMP_pressure;BME280_temperature;BME280_humidity;BME280_pressure;Samples;Min_cycle;Max_cycle;Signal;HPM_P1;HPM_P2
2022/03/19 00:00:21;;;;;;;21.90;8.77;;;;;;;-0.76;53.00;102352.97;5055114;28;20061;-78
2022/03/19 00:02:48;;;;;;;21.85;8.50;;;;;;;-0.79;53.51;102338.19;5055821;28;20061;-76
2022/03/19 00:05:16;;;;;;;20.33;7.65;;;;;;;-0.86;53.41;102339.31;5055150;28;20576;-78
2022/03/19 00:07:43;;;;;;;22.02;8.07;;;;;;;-0.83;53.54;102338.69;5054963;28;20045;-78
2022/03/19 00:10:10;;;;;;;15.93;7.32;;;;;;;-0.87;53.34;102354.56;5055110;28;20130;-77
2022/03/19 00:12:39;;;;;;;19.90;8.65;;;;;;;-0.91;53.71;102353.38;5055011;28;20092;-76
2022/03/19 00:15:08;;;;;;;20.55;8.30;;;;;;;-0.96;53.71;102341.81;5055009;28;20049;-79
2022/03/19 00:17:36;;;;;;;21.70;8.88;;;;;;;-1.05;53.96;102329.06;5054341;28;20061;-77
2022/03/19 00:20:04;;;;;;;18.75;8.05;;;;;;;-1.04;53.96;102333.44;5056892;28;20080;-78
2022/03/19 00:22:31;;;;;;;23.73;9.45;;;;;;;-1.01;53.96;102345.66;5054606;28;20049;-77
2022/03/19 00:24:59;;;;;;;21.98;8.90;;;;;;;-1.06;54.02;102336.63;5054982;28;20143;-77
2022/03/19 00:27:26;;;;;;;20.40;8.98;;;;;;;-1.29;54.05;102322.66;5054703;28;20060;-78
2022/03/19 00:29:53;;;;;;;21.13;8.82;;;;;;;-1.07;53.92;102339.97;5054684;28;20124;-77
2022/03/19 00:32:20;;;;;;;18.42;9.35;;;;;;;-1.10;54.42;102344.81;5054319;28;20400;-77
2022/03/19 00:34:47;;;;;;;19.70;8.38;;;;;;;-1.20;54.23;102337.06;5053737;28;20059;-78
2022/03/19 00:37:14;;;;;;;22.92;9.02;;;;;;;-1.16;54.14;102351.94;5054494;28;20145;-78
2022/03/19 00:39:41;;;;;;;17.75;8.60;;;;;;;-1.19;54.22;102357.72;5054245;28;20049;-76
2022/03/19 00:42:08;;;;;;;18.80;7.90;;;;;;;-1.23;54.26;102347.94;5053103;28;20472;-78
2022/03/19 00:44:34;;;;;;;17.73;8.10;;;;;;;-1.27;54.34;102338.16;5054232;28;20057;-77
2022/03/19 00:47:02;;;;;;;19.73;8.35;;;;;;;-1.29;54.44;102338.03;5054393;28;20088;-78
2022/03/19 00:49:29;;;;;;;18.90;7.78;;;;;;;-1.30;54.42;102343.03;5054649;28;20119;-79
2022/03/19 00:51:56;;;;;;;20.10;7.60;;;;;;;-1.29;54.83;102352.50;5054419;28;20052;-80
2022/03/19 00:54:23;;;;;;;15.52;7.57;;;;;;;-1.29;54.88;102339.69;5054307;28;20063;-78
2022/03/19 00:56:50;;;;;;;14.65;7.28;;;;;;;-1.29;54.91;102349.94;5053951;28;20152;-79
2022/03/19 00:59:17;;;;;;;23.90;10.18;;;;;;;-1.34;54.87;102346.97;5054314;28;20053;-78
2022/03/19 01:01:44;;;;;;;35.58;14.10;;;;;;;-1.41;55.45;102339.47;5053885;28;20505;-78
2022/03/19 01:04:11;;;;;;;27.02;11.80;;;;;;;-1.61;55.71;102316.25;5053676;28;20474;-78
2022/03/19 01:06:38;;;;;;;31.92;14.40;;;;;;;-1.88;55.72;102280.53;5054034;28;20056;-78
2022/03/19 01:09:05;;;;;;;21.88;9.95;;;;;;;-1.63;55.87;102344.31;5054012;28;20053;-78
2022/03/19 01:11:32;;;;;;;42.08;18.15;;;;;;;-1.66;56.23;102347.50;5053753;28;20112;-77
2022/03/19 01:13:59;;;;;;;21.27;10.00;;;;;;;-1.75;55.75;102315.00;5054456;28;20399;-77
2022/03/19 01:16:26;;;;;;;25.92;11.15;;;;;;;-1.66;55.97;102341.47;5053852;28;20057;-77
2022/03/19 01:18:53;;;;;;;22.75;9.63;;;;;;;-1.67;56.10;102344.78;5058688;28;20045;-78
2022/03/19 01:21:20;;;;;;;23.75;9.95;;;;;;;-1.70;56.29;102329.13;5074775;28;20057;-78
2022/03/19 01:23:47;;;;;;;23.10;10.48;;;;;;;-1.68;56.33;102346.47;5079144;28;20059;-77
2022/03/19 01:26:14;;;;;;;24.17;10.07;;;;;;;-1.69;56.20;102348.88;5074513;28;20048;-77
2022/03/19 01:28:41;;;;;;;27.70;11.30;;;;;;;-1.75;56.60;102348.31;5073396;28;20048;-79
2022/03/19 01:31:11;;;;;;;27.17;12.45;;;;;;;-1.83;56.65;102333.88;5074043;28;20060;-79
2022/03/19 01:33:38;;;;;;;31.23;11.90;;;;;;;-1.89;57.05;102350.50;5073686;28;20117;-78
2022/03/19 01:36:05;;;;;;;23.30;10.65;;;;;;;-1.94;56.75;102350.81;5073576;28;20060;-78
2022/03/19 01:38:32;;;;;;;25.10;11.05;;;;;;;-2.21;57.22;102301.41;5073429;28;20048;-77
2022/03/19 01:41:00;;;;;;;26.35;10.00;;;;;;;-1.92;57.37;102347.63;5073627;28;20048;-78
2022/03/19 01:43:27;;;;;;;20.52;9.30;;;;;;;-1.96;57.18;102360.91;5073531;28;20067;-78
2022/03/19 01:45:54;;;;;;;14.48;8.00;;;;;;;-2.00;57.13;102365.63;5073309;28;20056;-78
2022/03/19 01:48:21;;;;;;;19.83;8.60;;;;;;;-2.07;57.30;102376.94;5073821;28;20080;-78
2022/03/19 01:50:48;;;;;;;23.00;9.23;;;;;;;-2.41;57.46;102314.91;5072226;28;20468;-77
2022/03/19 01:53:15;;;;;;;22.60;9.80;;;;;;;-2.22;57.39;102367.81;5073402;28;20494;-78
2022/03/19 01:55:42;;;;;;;20.83;9.52;;;;;;;-2.42;57.48;102356.59;5073668;28;20055;-77
2022/03/19 01:58:09;;;;;;;20.90;9.23;;;;;;;-2.34;57.90;102382.94;5074271;28;20052;-77
2022/03/19 02:00:37;;;;;;;18.92;9.20;;;;;;;-2.64;57.85;102343.41;5075888;28;20052;-77
2022/03/19 02:03:06;;;;;;;17.80;9.10;;;;;;;-2.49;58.07;102383.25;5087373;28;20052;-77
2022/03/19 02:05:33;;;;;;;21.63;8.82;;;;;;;-2.45;58.50;102387.03;5087197;28;20074;-78
2022/03/19 02:08:00;;;;;;;21.40;8.45;;;;;;;-2.49;58.07;102388.38;5086989;28;20061;-79
2022/03/19 02:10:29;;;;;;;22.70;10.20;;;;;;;-2.80;58.25;102329.88;5076524;28;20052;-77
2022/03/19 02:12:56;;;;;;;21.17;9.80;;;;;;;-2.65;58.60;102366.28;5076014;28;20056;-77
2022/03/19 02:15:23;;;;;;;24.17;9.15;;;;;;;-2.87;58.56;102338.63;5078106;28;20113;-79
2022/03/19 02:17:50;;;;;;;21.63;8.45;;;;;;;-2.62;58.57;102384.50;5074100;28;20107;-78
2022/03/19 02:20:18;;;;;;;17.58;8.82;;;;;;;-2.79;58.64;102360.75;5073542;28;20060;-78
2022/03/19 02:25:34;;;;;;;20.35;8.45;;;;;;;-2.80;58.68;102370.81;5073106;28;20135;-77
2022/03/19 02:25:35;;;;;;;18.92;8.30;;;;;;;-2.77;58.88;102391.59;5072613;28;20111;-79
2022/03/19 02:28:03;;;;;;;16.47;8.40;;;;;;;-2.82;59.07;102393.69;5073128;28;20122;-78
2022/03/19 02:33:30;;;;;;;18.08;7.35;;;;;;;-2.99;59.01;102384.41;5073093;28;20552;-78
2022/03/19 02:35:57;;;;;;;14.73;7.05;;;;;;;-2.94;59.18;102388.28;5073170;28;20052;-78
2022/03/19 02:38:24;;;;;;;18.80;8.25;;;;;;;-2.99;59.44;102388.59;5073087;28;20048;-76
2022/03/19 02:40:51;;;;;;;20.70;7.97;;;;;;;-3.03;59.26;102382.28;5075385;28;20048;-77
2022/03/19 02:43:18;;;;;;;22.98;9.65;;;;;;;-2.94;59.37;102392.53;5076852;28;20052;-79
2022/03/19 02:45:48;;;;;;;22.15;9.93;;;;;;;-3.34;59.42;102363.00;5076671;28;20109;-78
2022/03/19 02:48:15;;;;;;;32.95;13.82;;;;;;;-2.96;59.31;102394.91;5079624;28;20102;-79
2022/03/19 02:50:42;;;;;;;29.90;13.27;;;;;;;-2.92;59.43;102402.13;5085893;28;20080;-78
2022/03/19 02:53:11;;;;;;;28.63;12.82;;;;;;;-2.89;59.48;102388.75;5083980;28;20063;-78
2022/03/19 02:55:40;;;;;;;28.83;12.32;;;;;;;-2.93;59.25;102374.75;5086318;28;20082;-78
2022/03/19 02:58:08;;;;;;;22.48;10.13;;;;;;;-2.85;59.22;102372.94;5084954;28;20493;-78
2022/03/19 03:00:36;;;;;;;21.98;10.52;;;;;;;-2.82;59.38;102392.78;5085829;28;20052;-79
2022/03/19 03:03:04;;;;;;;19.20;8.82;;;;;;;-2.81;59.36;102372.47;5082026;28;20044;-79
2022/03/19 03:05:34;;;;;;;20.95;9.13;;;;;;;-2.76;59.21;102401.06;5084161;28;20052;-78
2022/03/19 03:08:03;;;;;;;24.08;9.45;;;;;;;-2.79;59.23;102395.66;5081437;28;20079;-79
2022/03/19 03:10:32;;;;;;;21.92;9.55;;;;;;;-3.01;59.11;102354.28;5084391;28;20048;-79
2022/03/19 03:12:59;;;;;;;21.95;9.50;;;;;;;-2.75;59.13;102392.66;5083167;28;20060;-77
2022/03/19 03:15:26;;;;;;;20.70;9.82;;;;;;;-2.84;59.60;102368.72;5075158;28;20474;-78
2022/03/19 03:17:54;;;;;;;20.35;10.13;;;;;;;-2.78;59.26;102390.69;5075359;28;20061;-79
2022/03/19 03:20:21;;;;;;;21.67;11.10;;;;;;;-2.81;59.72;102382.72;5076002;28;20139;-78
2022/03/19 03:22:48;;;;;;;24.25;9.68;;;;;;;-2.90;59.71;102376.72;5074372;28;20058;-78
2022/03/19 03:25:15;;;;;;;19.67;9.60;;;;;;;-2.79;59.58;102391.44;5075524;28;20063;-78
2022/03/19 03:27:42;;;;;;;20.92;9.68;;;;;;;-2.72;59.52;102401.50;5075558;28;20056;-78
2022/03/19 03:30:09;;;;;;;21.13;9.70;;;;;;;-2.73;59.37;102376.69;5074948;28;20439;-78
2022/03/19 03:32:36;;;;;;;24.10;9.95;;;;;;;-2.62;59.20;102385.41;5075361;28;20056;-78
2022/03/19 03:35:04;;;;;;;19.77;9.77;;;;;;;-2.66;58.81;102369.63;5075011;28;20059;-77
2022/03/19 03:37:31;;;;;;;23.58;9.25;;;;;;;-2.54;59.34;102397.28;5079773;28;20056;-80
2022/03/19 03:39:58;;;;;;;37.13;19.58;;;;;;;-2.44;59.14;102398.16;5080742;28;20509;-79
2022/03/19 03:42:26;;;;;;;37.80;20.83;;;;;;;-2.51;58.70;102368.53;5095565;28;20518;-78
2022/03/19 03:44:58;;;;;;;24.77;10.85;;;;;;;-2.38;58.50;102391.06;5096284;28;20148;-78
2022/03/19 03:47:26;;;;;;;22.65;10.10;;;;;;;-2.36;58.97;102399.81;5097350;28;20426;-79
2022/03/19 03:49:53;;;;;;;28.83;11.18;;;;;;;-2.40;58.91;102400.28;5101912;28;20055;-78
2022/03/19 03:52:21;;;;;;;22.83;11.68;;;;;;;-2.50;58.75;102373.75;5120416;28;20123;-79
2022/03/19 03:54:48;;;;;;;24.13;12.02;;;;;;;-2.51;58.60;102381.31;5113349;28;20063;-79
2022/03/19 03:57:15;;;;;;;32.75;16.95;;;;;;;-2.43;58.83;102387.16;5096250;28;20071;-78
2022/03/19 03:59:41;;;;;;;34.00;16.83;;;;;;;-2.28;58.60;102410.03;5095378;28;20082;-78
2022/03/19 04:02:08;;;;;;;27.42;15.13;;;;;;;-2.24;58.41;102413.75;5095314;28;20450;-79
2022/03/19 04:04:35;;;;;;;27.30;14.57;;;;;;;-2.18;58.44;102405.78;5095367;28;20091;-79
2022/03/19 04:07:02;;;;;;;21.50;9.73;;;;;;;-2.12;58.43;102393.56;5095251;28;20056;-77
2022/03/19 04:09:30;;;;;;;25.17;13.05;;;;;;;-1.94;57.96;102402.94;5095760;28;20044;-77
2022/03/19 04:11:56;;;;;;;25.70;11.80;;;;;;;-1.89;57.63;102400.84;5103163;28;20062;-78
2022/03/19 04:14:23;;;;;;;21.98;10.65;;;;;;;-1.96;57.43;102368.59;5097975;28;20056;-78
2022/03/19 04:16:50;;;;;;;21.45;11.30;;;;;;;-1.66;57.09;102415.78;5094894;28;20054;-78
2022/03/19 04:19:17;;;;;;;25.55;11.43;;;;;;;-1.72;57.32;102385.38;5094917;28;20052;-79
2022/03/19 04:21:44;;;;;;;23.48;11.15;;;;;;;-1.67;56.59;102381.56;5093640;28;20056;-79
2022/03/19 04:24:11;;;;;;;20.70;9.30;;;;;;;-1.34;56.99;102426.47;5094845;28;20060;-79
2022/03/19 04:26:37;;;;;;;23.73;12.63;;;;;;;-1.18;55.95;102427.88;5094554;28;20413;-78
2022/03/19 04:29:05;;;;;;;23.85;11.90;;;;;;;-1.02;56.15;102422.47;5094580;28;20052;-78
2022/03/19 04:31:32;;;;;;;15.10;7.93;;;;;;;-0.88;55.95;102412.72;5094514;28;20060;-78
2022/03/19 04:33:59;;;;;;;16.27;7.72;;;;;;;-0.91;55.20;102384.19;5094303;28;20048;-77
2022/03/19 04:36:33;;;;;;;15.85;6.82;;;;;;;-0.48;54.75;102426.50;5094942;28;20143;-78
2022/03/19 04:39:02;;;;;;;13.82;6.65;;;;;;;-0.54;54.81;102366.00;5094519;28;20562;-78
2022/03/19 04:41:30;;;;;;;15.82;7.18;;;;;;;-0.30;54.22;102383.59;5094158;28;20059;-76
2022/03/19 04:43:57;;;;;;;19.98;7.97;;;;;;;0.09;53.25;102416.06;5094226;28;20051;-78
2022/03/19 04:46:24;;;;;;;19.33;8.38;;;;;;;0.19;53.01;102403.25;5093840;28;20452;-79
2022/03/19 04:48:52;;;;;;;17.88;9.10;;;;;;;0.53;52.82;102424.09;5093969;28;20154;-79
2022/03/19 04:51:21;;;;;;;24.73;13.43;;;;;;;0.73;51.98;102427.44;5095021;28;20074;-78
2022/03/19 04:53:50;;;;;;;23.58;11.88;;;;;;;0.89;51.42;102414.22;5085037;28;20469;-79
2022/03/19 04:56:19;;;;;;;24.50;10.67;;;;;;;1.12;51.10;102426.38;5077786;28;20049;-78
2022/03/19 04:58:46;;;;;;;23.67;10.63;;;;;;;1.10;50.69;102397.97;5094497;28;20051;-78
2022/03/19 05:01:16;;;;;;;20.33;9.20;;;;;;;1.14;50.43;102381.06;5083475;28;20106;-79
2022/03/19 05:03:43;;;;;;;19.13;8.93;;;;;;;1.40;49.44;102403.81;5073597;28;20278;-77
2022/03/19 05:06:10;;;;;;;20.90;9.55;;;;;;;1.82;49.06;102434.66;5074038;28;20067;-78
2022/03/19 05:08:38;;;;;;;21.95;10.68;;;;;;;2.05;48.84;102430.44;5073815;28;20056;-79
2022/03/19 05:11:13;;;;;;;14.32;7.28;;;;;;;2.17;48.53;102434.00;5080404;28;20056;-78
2022/03/19 05:13:43;;;;;;;16.42;8.20;;;;;;;2.32;47.89;102426.53;5083047;28;20083;-80
2022/03/19 05:16:13;;;;;;;18.60;8.63;;;;;;;2.50;47.94;102426.19;5079418;28;20102;-78
2022/03/19 05:18:40;;;;;;;;;;;;;;;2.49;48.80;102427.84;5082201;28;20049;-80
2022/03/19 05:21:07;;;;;;;21.35;9.57;;;;;;;2.72;47.53;102447.66;5080966;28;19928;-79
2022/03/19 05:23:47;;;;;;;22.00;10.13;;;;;;;2.72;47.34;102410.63;5085177;28;20147;-78
2022/03/19 05:26:18;;;;;;;20.55;8.73;;;;;;;2.98;46.93;102449.63;5082479;28;20079;-80
2022/03/19 05:28:45;;;;;;;19.08;10.50;;;;;;;2.97;46.73;102440.09;5082701;28;20149;-79
2022/03/19 05:31:32;;;;;;;19.85;9.70;;;;;;;2.97;46.58;102440.09;5082832;28;20060;-79
2022/03/19 05:37:18;;;;;;;18.58;9.70;;;;;;;2.81;46.51;102439.72;5074203;28;21599;-80
2022/03/19 05:39:55;;;;;;;18.25;8.23;;;;;;;2.60;46.37;102402.84;5073555;28;20572;-78
2022/03/19 05:42:25;;;;;;;21.55;9.10;;;;;;;2.49;45.83;102378.81;5074105;28;20052;-80
2022/03/19 05:45:12;;;;;;;17.40;8.32;;;;;;;3.07;45.46;102452.00;5076609;28;20054;-81
2022/03/19 05:47:44;;;;;;;17.60;8.60;;;;;;;3.01;45.49;102442.13;5084139;28;20079;-78
2022/03/19 05:50:12;;;;;;;21.48;10.98;;;;;;;3.04;45.63;102452.69;5083484;28;20052;-79
2022/03/19 05:52:40;;;;;;;23.17;10.50;;;;;;;3.01;45.72;102455.06;5083612;28;20056;-80
2022/03/19 05:55:39;;;;;;;20.70;9.13;;;;;;;2.96;45.52;102453.78;5083628;28;20072;-78
2022/03/19 05:58:06;;;;;;;18.75;8.32;;;;;;;2.96;45.51;102453.78;5076563;28;20055;-78
2022/03/19 06:00:35;;;;;;;17.50;8.80;;;;;;;3.07;45.29;102447.72;5079171;28;20055;-78
2022/03/19 06:03:20;;;;;;;16.70;8.52;;;;;;;3.24;45.05;102440.34;5084463;28;20044;-78
2022/03/19 06:05:56;;;;;;;;;;;;;;;3.13;45.57;102438.66;5089390;28;20044;-79
2022/03/19 06:08:23;;;;;;;;;;;;;;;3.13;45.98;102442.13;5086374;28;20368;-78
2022/03/19 06:10:50;;;;;;;23.55;9.73;;;;;;;3.36;45.48;102464.53;5085924;28;19950;-80
2022/03/19 06:13:20;;;;;;;21.77;9.40;;;;;;;3.42;44.70;102427.88;5085543;28;20503;-81
2022/03/19 06:15:54;;;;;;;27.63;10.98;;;;;;;3.62;44.68;102444.88;5079920;28;20052;-80
2022/03/19 06:18:21;;;;;;;28.02;11.95;;;;;;;3.64;44.34;102433.84;5081662;28;20052;-82
2022/03/19 06:20:56;;;;;;;33.50;14.82;;;;;;;3.79;44.10;102439.22;5082162;28;20097;-83
2022/03/19 06:23:24;;;;;;;30.02;11.73;;;;;;;4.03;43.43;102446.94;5088562;28;20135;-81
2022/03/19 06:25:54;;;;;;;24.48;9.30;;;;;;;3.97;43.47;102441.31;5100793;28;20028;-81
2022/03/19 06:28:21;;;;;;;23.77;9.57;;;;;;;4.02;43.95;102464.16;5106374;28;20051;-81
2022/03/19 06:30:48;;;;;;;25.88;10.52;;;;;;;4.10;43.71;102462.09;5089546;28;20051;-81
2022/03/19 06:33:18;;;;;;;21.73;8.10;;;;;;;3.99;43.23;102409.59;5081518;28;20118;-79
2022/03/19 06:38:39;;;;;;;17.45;8.73;;;;;;;4.43;42.56;102442.88;5077330;28;20080;-78
2022/03/19 06:41:06;;;;;;;17.10;8.27;;;;;;;4.63;42.68;102445.94;5081460;28;20532;-77
2022/03/19 06:43:35;;;;;;;21.10;9.43;;;;;;;4.51;42.44;102396.78;5088511;28;20048;-80
2022/03/19 06:46:03;;;;;;;18.40;9.30;;;;;;;4.80;41.99;102431.56;5093021;28;20055;-79
2022/03/19 06:48:30;;;;;;;21.90;8.93;;;;;;;5.04;41.45;102453.91;5084823;28;20051;-78
2022/03/19 06:50:57;;;;;;;22.92;9.23;;;;;;;5.13;41.64;102435.50;5083140;28;20074;-78
2022/03/19 06:53:25;;;;;;;25.58;9.23;;;;;;;5.34;41.33;102447.28;5077242;28;20131;-79
2022/03/19 06:55:55;;;;;;;18.83;7.88;;;;;;;5.44;40.52;102453.06;5082697;28;20452;-80
2022/03/19 06:58:21;;;;;;;18.27;8.25;;;;;;;5.33;40.33;102416.97;5077775;28;20198;-79
2022/03/19 07:00:49;;;;;;;18.00;9.02;;;;;;;5.40;40.36;102422.53;5081565;28;20052;-75
2022/03/19 07:03:17;;;;;;;21.25;8.80;;;;;;;5.51;40.48;102443.19;5079807;28;20052;-80
2022/03/19 07:05:44;;;;;;;17.08;8.23;;;;;;;5.47;40.84;102443.78;5083349;28;20121;-79
2022/03/19 07:08:11;;;;;;;16.33;8.27;;;;;;;5.58;40.29;102441.00;5081329;28;20052;-79
2022/03/19 07:10:38;;;;;;;20.83;10.43;;;;;;;5.77;40.01;102438.78;5079720;28;20130;-79
2022/03/19 07:13:05;;;;;;;16.63;9.50;;;;;;;5.73;39.57;102410.88;5080971;28;20056;-78
2022/03/19 07:15:32;;;;;;;20.33;8.52;;;;;;;6.01;39.93;102448.97;5081348;28;20105;-79
2022/03/19 07:18:00;;;;;;;17.98;7.75;;;;;;;5.91;39.89;102427.56;5079980;28;20104;-76
2022/03/19 07:20:29;;;;;;;18.25;9.05;;;;;;;6.02;39.49;102435.19;5080730;28;20068;-79
2022/03/19 07:23:01;;;;;;;18.40;8.13;;;;;;;6.08;39.31;102426.06;5080036;28;20140;-78
2022/03/19 07:25:34;;;;;;;21.48;8.75;;;;;;;6.36;39.09;102432.97;5081277;28;20512;-78
2022/03/19 07:28:10;;;;;;;20.85;9.13;;;;;;;6.49;39.31;102434.63;5075638;28;20515;-78
2022/03/19 07:31:20;;;;;;;24.38;9.20;;;;;;;6.52;39.08;102435.72;5078558;28;20047;-80
2022/03/19 07:34:39;;;;;;;24.25;9.52;;;;;;;5.47;39.23;102303.78;5067193;28;20662;-79
2022/03/19 07:37:18;;;;;;;23.08;10.18;;;;;;;6.28;39.25;102396.19;5078719;28;20605;-79
2022/03/19 07:39:48;;;;;;;29.20;10.00;;;;;;;6.43;38.63;102426.47;5096104;28;20068;-78
2022/03/19 07:42:32;;;;;;;;;;;;;;;6.44;39.88;102431.75;5097349;28;20163;-79
2022/03/19 07:45:10;;;;;;;31.05;13.95;;;;;;;6.42;39.50;102406.50;5081079;28;19931;-77
2022/03/19 07:47:37;;;;;;;30.55;15.55;;;;;;;6.54;39.51;102421.13;5088427;28;20109;-79
2022/03/19 07:50:05;;;;;;;33.10;13.00;;;;;;;6.55;39.12;102419.44;5082352;28;20098;-78
2022/03/19 07:52:33;;;;;;;27.80;12.68;;;;;;;6.72;38.71;102438.63;5085984;28;20505;-81
2022/03/19 07:55:03;;;;;;;29.70;12.25;;;;;;;6.31;38.82;102365.22;5078878;28;20143;-78
2022/03/19 07:57:30;;;;;;;31.98;15.07;;;;;;;6.79;38.70;102437.28;5084627;28;20048;-80
2022/03/19 07:59:57;;;;;;;34.47;15.13;;;;;;;6.82;39.14;102435.78;5082619;28;20078;-77
2022/03/19 08:02:26;;;;;;;28.80;15.82;;;;;;;6.85;38.98;102430.75;5084761;28;20546;-80
2022/03/19 08:05:00;;;;;;;;;;;;;;;6.62;39.64;102421.56;5088553;28;20132;-77
2022/03/19 08:07:27;;;;;;;38.28;18.33;;;;;;;6.66;39.65;102410.56;5061636;28;19924;-78
2022/03/19 08:09:57;;;;;;;44.10;19.23;;;;;;;6.78;39.30;102438.09;5070977;28;20067;-79
2022/03/19 08:12:29;;;;;;;33.28;17.65;;;;;;;6.76;39.29;102432.81;5070999;28;20468;-76
2022/03/19 08:14:56;;;;;;;45.35;18.23;;;;;;;6.72;39.61;102428.25;5083119;28;20048;-78
2022/03/19 08:17:26;;;;;;;41.63;19.80;;;;;;;6.45;39.27;102402.38;5086268;28;20048;-79
2022/03/19 08:19:57;;;;;;;39.17;18.75;;;;;;;6.21;39.40;102369.75;5076430;28;20798;-77
2022/03/19 08:22:36;;;;;;;37.25;19.77;;;;;;;6.57;39.56;102441.19;5074305;28;20509;-80
2022/03/19 08:25:07;;;;;;;39.35;18.63;;;;;;;6.64;40.16;102430.34;5074000;28;20059;-77
2022/03/19 08:27:34;;;;;;;38.97;17.95;;;;;;;6.61;40.46;102443.16;5073175;28;20413;-79
2022/03/19 08:30:04;;;;;;;32.30;17.70;;;;;;;6.44;40.85;102404.91;5074978;28;20056;-78
2022/03/19 08:32:31;;;;;;;37.83;19.15;;;;;;;6.66;40.13;102435.66;5074061;28;20135;-78
2022/03/19 08:34:58;;;;;;;54.38;28.17;;;;;;;6.77;40.16;102434.59;5073962;28;20571;-77
2022/03/19 08:37:26;;;;;;;32.28;16.88;;;;;;;6.55;40.42;102403.84;5072970;28;20068;-78
2022/03/19 08:42:40;;;;;;;34.25;17.95;;;;;;;6.73;40.68;102436.13;5074446;28;20055;-78
2022/03/19 08:45:08;;;;;;;34.95;17.83;;;;;;;6.83;40.32;102454.84;5082251;28;20117;-79
2022/03/19 08:47:37;;;;;;;35.08;17.98;;;;;;;6.78;40.73;102419.94;5079864;28;20048;-77
2022/03/19 08:50:07;;;;;;;32.13;18.25;;;;;;;6.98;40.36;102438.47;5082680;28;20513;-78
2022/03/19 08:52:34;;;;;;;37.95;18.70;;;;;;;7.12;40.38;102431.50;5094501;28;20044;-78
2022/03/19 08:55:03;;;;;;;39.65;18.55;;;;;;;7.22;39.95;102447.63;5097446;28;20056;-77
2022/03/19 08:57:31;;;;;;;27.90;16.55;;;;;;;7.27;39.84;102446.16;5111667;28;20068;-78
2022/03/19 08:59:58;;;;;;;28.80;16.65;;;;;;;7.28;39.66;102441.06;5116968;28;20055;-78
2022/03/19 09:02:40;;;;;;;33.22;17.70;;;;;;;6.93;39.68;102377.53;5097708;28;20056;-79
2022/03/19 09:05:08;;;;;;;38.15;18.33;;;;;;;7.42;39.51;102440.97;5093868;28;20050;-79
2022/03/19 09:07:35;;;;;;;31.73;18.38;;;;;;;7.36;39.67;102431.13;5092924;28;20402;-79
2022/03/19 09:10:03;;;;;;;38.72;17.15;;;;;;;7.57;39.71;102455.75;5074559;28;20109;-80
2022/03/19 09:12:35;;;;;;;34.92;18.20;;;;;;;7.58;39.59;102447.13;5074349;28;20053;-78
2022/03/19 09:15:03;;;;;;;32.95;18.05;;;;;;;7.48;39.81;102456.91;5073467;28;20052;-77
2022/03/19 09:17:30;;;;;;;31.05;17.15;;;;;;;7.31;39.86;102443.88;5073578;28;20055;-79
2022/03/19 09:19:57;;;;;;;31.85;17.75;;;;;;;7.17;39.95;102444.75;5073351;28;20497;-79
2022/03/19 09:22:29;;;;;;;29.70;16.95;;;;;;;7.23;40.01;102447.72;5072369;28;20505;-78
2022/03/19 09:24:57;;;;;;;32.42;18.13;;;;;;;7.09;39.95;102441.69;5073549;28;20060;-78
2022/03/19 09:27:24;;;;;;;31.13;17.17;;;;;;;7.42;39.67;102447.06;5073198;28;20409;-78
2022/03/19 09:29:51;;;;;;;29.52;15.20;;;;;;;7.46;39.21;102456.81;5073903;28;20583;-79
2022/03/19 09:32:18;;;;;;;32.22;15.57;;;;;;;7.53;39.01;102464.19;5072341;28;20052;-79
2022/03/19 09:34:49;;;;;;;29.48;15.90;;;;;;;7.34;38.92;102384.22;5073857;28;20052;-80
2022/03/19 09:37:16;;;;;;;;;;;;;;;7.58;39.20;102441.91;5085288;28;20055;-80
2022/03/19 09:39:43;;;;;;;27.45;13.68;;;;;;;7.49;38.75;102407.59;5078693;28;19946;-80
2022/03/19 09:42:12;;;;;;;25.88;13.95;;;;;;;7.49;38.47;102418.00;5076559;28;20395;-78
2022/03/19 09:44:43;;;;;;;25.33;14.25;;;;;;;7.48;38.49;102400.59;5074413;28;20060;-80
2022/03/19 09:47:12;;;;;;;30.58;14.25;;;;;;;7.64;38.24;102406.69;5055727;28;20053;-81
2022/03/19 09:49:40;;;;;;;27.55;13.55;;;;;;;7.67;38.08;102394.72;5074330;28;20495;-81
2022/03/19 09:52:08;;;;;;;23.13;12.52;;;;;;;7.86;38.38;102434.78;5073396;28;20052;-81
2022/03/19 09:54:34;;;;;;;26.15;14.50;;;;;;;7.80;37.82;102404.09;5073043;28;20052;-81
2022/03/19 09:57:02;;;;;;;22.17;12.50;;;;;;;7.94;38.06;102437.00;5072644;28;20461;-80
2022/03/19 09:59:34;;;;;;;26.90;13.68;;;;;;;7.95;37.78;102446.56;5074832;28;20105;-82
2022/03/19 10:02:10;;;;;;;26.30;12.48;;;;;;;7.85;37.88;102438.16;5072709;28;20125;-82
2022/03/19 10:04:39;;;;;;;23.88;12.13;;;;;;;7.78;37.79;102419.59;5072649;28;20131;-83
2022/03/19 10:09:54;;;;;;;21.95;12.18;;;;;;;7.77;37.64;102416.94;5074035;28;20127;-84
2022/03/19 10:12:27;;;;;;;22.52;11.48;;;;;;;7.48;37.69;102389.28;5073070;28;20496;-80
2022/03/19 10:14:56;;;;;;;21.92;11.82;;;;;;;7.24;37.32;102316.91;5073085;28;20052;-84
2022/03/19 10:17:32;;;;;;;25.55;12.65;;;;;;;7.99;37.15;102429.44;5073625;28;20155;-84
2022/03/19 10:20:09;;;;;;;27.17;11.88;;;;;;;8.04;37.14;102440.97;5072852;28;20477;-79
2022/03/19 10:22:42;;;;;;;22.88;11.98;;;;;;;7.79;37.20;102397.13;5074623;28;20048;-82
2022/03/19 10:25:17;;;;;;;20.23;10.80;;;;;;;8.06;37.05;102436.75;5073089;28;20117;-79
2022/03/19 10:27:45;;;;;;;21.70;11.50;;;;;;;8.03;36.81;102434.00;5072762;28;20048;-79
2022/03/19 10:30:19;;;;;;;20.25;10.75;;;;;;;8.02;37.04;102421.78;5072490;28;20056;-81
2022/03/19 10:32:51;;;;;;;19.58;9.98;;;;;;;8.21;35.97;102449.72;5086833;28;20052;-79
2022/03/19 10:35:32;;;;;;;19.10;10.45;;;;;;;8.38;35.65;102427.19;5093310;28;20516;-80
2022/03/19 10:38:16;;;;;;;22.10;11.13;;;;;;;8.50;36.01;102433.06;5078153;28;20114;-80
2022/03/19 10:40:46;;;;;;;20.48;9.88;;;;;;;8.42;35.65;102417.88;5072373;28;20058;-80
2022/03/19 10:43:15;;;;;;;;;;;;;;;8.39;36.71;102435.09;5072262;28;20048;-79
2022/03/19 10:45:46;;;;;;;19.75;9.48;;;;;;;8.54;35.83;102421.09;5071518;28;20392;-78
2022/03/19 10:48:21;;;;;;;17.13;9.45;;;;;;;8.62;35.09;102419.78;5073600;28;20059;-81
2022/03/19 10:50:52;;;;;;;15.70;9.00;;;;;;;8.51;35.10;102381.88;5075636;28;20577;-80
2022/03/19 10:53:21;;;;;;;18.27;8.82;;;;;;;8.59;35.32;102407.50;5071870;28;20467;-80
2022/03/19 10:55:49;;;;;;;20.17;9.43;;;;;;;8.84;34.96;102426.09;5072168;28;20048;-79
2022/03/19 10:58:17;;;;;;;16.48;8.20;;;;;;;8.79;34.17;102387.66;5072315;28;20059;-78
2022/03/19 11:01:07;;;;;;;16.60;8.60;;;;;;;8.78;33.47;102367.66;5075264;28;20056;-81
2022/03/19 11:03:42;;;;;;;17.33;9.18;;;;;;;9.17;33.54;102422.59;5078185;28;20052;-80
2022/03/19 11:06:14;;;;;;;21.92;8.45;;;;;;;9.24;33.04;102423.78;5076418;28;20054;-80
2022/03/19 11:08:43;;;;;;;17.85;8.77;;;;;;;9.31;33.55;102432.81;5075894;28;20493;-81
2022/03/19 11:11:15;;;;;;;13.70;7.97;;;;;;;9.31;33.43;102425.00;5075976;28;20572;-81
2022/03/19 11:13:46;;;;;;;17.17;8.50;;;;;;;9.29;32.86;102419.72;5076513;28;20522;-81
2022/03/19 11:16:14;;;;;;;15.75;8.00;;;;;;;9.21;33.02;102388.03;5076506;28;20643;-82
2022/03/19 11:18:42;;;;;;;15.02;7.53;;;;;;;9.40;32.60;102420.25;5076093;28;20053;-79
2022/03/19 11:21:10;;;;;;;10.80;5.55;;;;;;;9.26;31.27;102384.75;5076443;28;20044;-81
2022/03/19 11:23:50;;;;;;;11.05;5.60;;;;;;;9.39;31.33;102405.41;5076048;28;20060;-80
2022/03/19 11:26:23;;;;;;;9.20;5.30;;;;;;;9.14;30.72;102385.97;5080760;28;20052;-80
2022/03/19 11:28:51;;;;;;;8.98;5.60;;;;;;;9.34;30.56;102412.13;5093322;28;20052;-79
2022/03/19 11:31:28;;;;;;;10.82;5.47;;;;;;;9.30;29.78;102405.84;5099799;28;20048;-80
2022/03/19 11:34:19;;;;;;;7.82;4.72;;;;;;;9.18;30.03;102392.19;5078357;28;20056;-81
2022/03/19 11:37:03;;;;;;;9.45;5.00;;;;;;;9.00;29.57;102361.78;5080487;28;20059;-80
2022/03/19 11:39:30;;;;;;;9.40;4.90;;;;;;;9.34;29.85;102406.91;5081721;28;20056;-79
2022/03/19 11:41:59;;;;;;;8.30;4.80;;;;;;;9.15;29.96;102379.91;5080008;28;20052;-78
2022/03/19 11:44:27;;;;;;;8.77;4.93;;;;;;;9.18;29.42;102411.38;5079946;28;20502;-79